createdAt,value
2016-01-31T00:00:22.495Z,5.45
2016-01-31T00:01:22.738Z,5.39
2016-01-31T00:02:19.725Z,5.38
2016-01-31T00:03:21.290Z,5.36
2016-01-31T00:04:19.543Z,5.4
2016-01-31T00:05:19.562Z,5.27
2016-01-31T00:06:19.549Z,5.31
2016-01-31T00:07:19.551Z,5.22
2016-01-31T00:08:19.523Z,5.24
2016-01-31T00:09:19.558Z,5.22
2016-01-31T00:10:19.545Z,5.21
2016-01-31T00:11:19.518Z,5.2
2016-01-31T00:12:19.520Z,5.07
2016-01-31T00:13:19.522Z,5.04
2016-01-31T00:14:19.514Z,5.09
2016-01-31T00:15:19.534Z,5.04
2016-01-31T00:16:19.506Z,4.96
2016-01-31T00:17:19.509Z,4.97
2016-01-31T00:18:19.512Z,5.03
2016-01-31T00:19:19.515Z,4.99
2016-01-31T00:20:19.504Z,5
2016-01-31T00:21:19.492Z,4.85
2016-01-31T00:22:19.478Z,4.8
2016-01-31T00:23:19.497Z,4.82
2016-01-31T00:24:19.516Z,4.82
2016-01-31T00:25:19.502Z,4.8
2016-01-31T00:26:19.474Z,4.77
2016-01-31T00:27:19.477Z,4.75
2016-01-31T00:28:19.479Z,4.69
2016-01-31T00:29:19.465Z,4.72
2016-01-31T00:30:19.469Z,4.67
2016-01-31T00:31:19.472Z,4.62
2016-01-31T00:32:19.475Z,4.54
2016-01-31T00:33:19.462Z,4.5
2016-01-31T00:34:19.480Z,4.45
2016-01-31T00:35:19.468Z,4.34
2016-01-31T00:36:19.471Z,4.32
2016-01-31T00:37:19.426Z,4.15
2016-01-31T00:38:19.429Z,4.26
2016-01-31T00:39:19.432Z,4.23
2016-01-31T00:40:19.454Z,4.22
2016-01-31T00:41:19.425Z,4.18
2016-01-31T00:42:19.413Z,4.22
2016-01-31T00:43:19.430Z,4.15
2016-01-31T00:44:19.404Z,4.16
2016-01-31T00:45:19.397Z,4.12
2016-01-31T00:46:19.399Z,4.09
2016-01-31T00:47:19.402Z,4.04
2016-01-31T00:48:19.378Z,4.05
2016-01-31T00:49:19.381Z,3.98
2016-01-31T00:50:19.384Z,4.05
2016-01-31T00:51:19.359Z,4.05
2016-01-31T00:52:19.377Z,3.98
2016-01-31T00:53:19.365Z,4
2016-01-31T00:54:19.382Z,4.04
2016-01-31T00:55:19.371Z,3.94
2016-01-31T00:56:19.358Z,3.96
2016-01-31T00:57:19.345Z,3.86
2016-01-31T00:58:19.363Z,3.9
2016-01-31T00:59:19.324Z,3.84
2016-01-31T01:00:19.326Z,3.73
2016-01-31T01:01:19.345Z,3.79
2016-01-31T01:02:19.317Z,3.7
2016-01-31T01:03:19.319Z,3.65
2016-01-31T01:04:19.315Z,3.6
2016-01-31T01:05:19.318Z,3.5
2016-01-31T01:06:19.307Z,3.39
2016-01-31T01:07:19.309Z,3.35
2016-01-31T01:08:19.282Z,3.28
2016-01-31T01:09:19.284Z,3.33
2016-01-31T01:10:19.294Z,3.23
2016-01-31T01:11:19.296Z,3.21
2016-01-31T01:12:19.284Z,3.21
2016-01-31T01:13:19.286Z,3.15
2016-01-31T01:14:19.273Z,3.18
2016-01-31T01:15:19.261Z,3.2
2016-01-31T01:16:19.248Z,3.18
2016-01-31T01:17:19.266Z,3.15
2016-01-31T01:18:19.237Z,3.13
2016-01-31T01:19:19.226Z,3.05
2016-01-31T01:20:19.244Z,3.05
2016-01-31T01:21:19.215Z,3.15
2016-01-31T01:22:19.217Z,3.15
2016-01-31T01:23:19.221Z,3.17
2016-01-31T01:24:19.193Z,3.17
2016-01-31T01:25:19.196Z,3.13
2016-01-31T01:26:19.199Z,3.17
2016-01-31T01:27:19.188Z,3.2
2016-01-31T01:28:19.191Z,3.24
2016-01-31T01:29:19.176Z,3.24
2016-01-31T01:30:19.180Z,3.18
2016-01-31T01:31:19.307Z,3.31
2016-01-31T01:32:19.186Z,3.31
2016-01-31T01:33:19.173Z,3.26
2016-01-31T01:34:19.162Z,3.26
2016-01-31T01:35:19.149Z,3.33
2016-01-31T01:36:19.136Z,3.35
2016-01-31T01:37:19.139Z,3.33
2016-01-31T01:38:19.127Z,3.29
2016-01-31T01:39:19.130Z,3.28
2016-01-31T01:40:19.132Z,3.24
2016-01-31T01:41:19.135Z,3.26
2016-01-31T01:42:19.138Z,3.28
2016-01-31T01:43:19.110Z,3.23
2016-01-31T01:44:19.097Z,3.24
2016-01-31T01:45:19.115Z,3.31
2016-01-31T01:46:19.107Z,3.23
2016-01-31T01:47:19.095Z,3.18
2016-01-31T01:48:19.098Z,3.26
2016-01-31T01:49:19.069Z,3.24
2016-01-31T01:50:19.071Z,3.26
2016-01-31T01:51:19.074Z,3.29
2016-01-31T01:52:19.077Z,3.26
2016-01-31T01:53:19.049Z,3.32
2016-01-31T01:54:19.051Z,3.33
2016-01-31T01:55:19.054Z,3.32
2016-01-31T01:56:19.073Z,3.31
2016-01-31T01:57:19.028Z,3.24
2016-01-31T01:58:19.034Z,3.29
2016-01-31T01:59:19.020Z,3.35
2016-01-31T02:00:19.023Z,3.28
2016-01-31T02:01:19.011Z,3.4
2016-01-31T02:02:19.030Z,3.33
2016-01-31T02:03:19.002Z,3.28
2016-01-31T02:04:19.005Z,3.21
2016-01-31T02:05:18.989Z,3.21
2016-01-31T02:06:18.992Z,3.24
2016-01-31T02:07:18.995Z,3.24
2016-01-31T02:08:18.998Z,3.18
2016-01-31T02:09:18.986Z,3.2
2016-01-31T02:10:18.973Z,3.31
2016-01-31T02:11:18.975Z,3.17
2016-01-31T02:12:18.962Z,3.28
2016-01-31T02:13:18.965Z,3.28
2016-01-31T02:14:18.953Z,3.29
2016-01-31T02:15:18.939Z,3.23
2016-01-31T02:16:18.942Z,3.24
2016-01-31T02:17:18.933Z,3.17
2016-01-31T02:18:18.955Z,3.24
2016-01-31T02:19:18.927Z,3.18
2016-01-31T02:20:18.944Z,3.21
2016-01-31T02:21:18.916Z,3.13
2016-01-31T02:22:18.920Z,3.11
2016-01-31T02:23:18.906Z,3.13
2016-01-31T02:24:18.909Z,3.03
2016-01-31T02:25:18.897Z,3.03
2016-01-31T02:26:18.887Z,3
2016-01-31T02:27:18.907Z,3.06
2016-01-31T02:28:18.894Z,3
2016-01-31T02:29:18.880Z,2.97
2016-01-31T02:30:18.868Z,3.05
2016-01-31T02:31:18.871Z,3.03
2016-01-31T02:32:18.874Z,2.9
2016-01-31T02:33:18.860Z,2.95
2016-01-31T02:34:18.849Z,2.84
2016-01-31T02:35:18.851Z,2.89
2016-01-31T02:36:18.838Z,2.93
2016-01-31T02:37:18.840Z,2.82
2016-01-31T02:38:18.828Z,2.84
2016-01-31T02:39:18.830Z,2.82
2016-01-31T02:40:18.817Z,2.82
2016-01-31T02:41:18.804Z,2.9
2016-01-31T02:42:18.807Z,2.82
2016-01-31T02:43:18.810Z,2.82
2016-01-31T02:44:18.797Z,2.81
2016-01-31T02:45:18.800Z,2.87
2016-01-31T02:46:18.789Z,2.87
2016-01-31T02:47:18.776Z,2.77
2016-01-31T02:48:18.778Z,2.84
2016-01-31T02:49:18.815Z,2.79
2016-01-31T02:50:18.771Z,2.77
2016-01-31T02:51:18.759Z,2.79
2016-01-31T02:52:18.776Z,2.78
2016-01-31T02:53:18.764Z,2.79
2016-01-31T02:54:18.751Z,2.74
2016-01-31T02:55:18.755Z,2.78
2016-01-31T02:56:18.758Z,2.78
2016-01-31T02:57:18.729Z,2.79
2016-01-31T02:58:18.732Z,2.82
2016-01-31T02:59:18.720Z,2.79
2016-01-31T03:00:18.723Z,2.81
2016-01-31T03:01:18.713Z,2.81
2016-01-31T03:02:18.700Z,2.77
2016-01-31T03:03:18.687Z,2.78
2016-01-31T03:04:18.705Z,2.77
2016-01-31T03:05:18.693Z,2.77
2016-01-31T03:06:18.681Z,2.79
2016-01-31T03:07:18.683Z,2.79
2016-01-31T03:08:18.686Z,2.77
2016-01-31T03:09:18.657Z,2.75
2016-01-31T03:10:18.662Z,2.81
2016-01-31T03:11:18.650Z,2.77
2016-01-31T03:12:18.668Z,2.71
2016-01-31T03:13:18.671Z,2.78
2016-01-31T03:14:18.648Z,2.77
2016-01-31T03:15:18.617Z,2.77
2016-01-31T03:16:18.620Z,2.78
2016-01-31T03:17:18.607Z,2.81
2016-01-31T03:18:18.641Z,2.79
2016-01-31T03:19:18.612Z,2.69
2016-01-31T03:20:18.604Z,2.75
2016-01-31T03:21:18.594Z,2.72
2016-01-31T03:22:18.581Z,2.6
2016-01-31T03:23:18.583Z,2.72
2016-01-31T03:24:18.586Z,2.63
2016-01-31T03:25:18.573Z,2.64
2016-01-31T03:26:18.561Z,2.77
2016-01-31T03:27:18.563Z,2.6
2016-01-31T03:28:18.566Z,2.63
2016-01-31T03:29:18.538Z,2.64
2016-01-31T03:30:18.540Z,2.61
2016-01-31T03:31:18.544Z,2.71
2016-01-31T03:32:18.562Z,2.69
2016-01-31T03:33:18.518Z,2.69
2016-01-31T03:34:18.522Z,2.61
2016-01-31T03:35:18.510Z,2.71
2016-01-31T03:36:18.496Z,2.71
2016-01-31T03:37:18.498Z,2.6
2016-01-31T03:38:18.487Z,2.64
2016-01-31T03:39:18.506Z,2.63
2016-01-31T03:40:18.479Z,2.61
2016-01-31T03:41:18.465Z,2.61
2016-01-31T03:42:18.485Z,2.61
2016-01-31T03:43:18.471Z,2.52
2016-01-31T03:44:18.458Z,2.57
2016-01-31T03:45:18.448Z,2.64
2016-01-31T03:46:18.435Z,2.63
2016-01-31T03:47:18.454Z,2.52
2016-01-31T03:48:18.441Z,2.56
2016-01-31T03:49:18.429Z,2.63
2016-01-31T03:50:18.422Z,2.57
2016-01-31T03:51:18.440Z,2.61
2016-01-31T03:52:18.429Z,2.59
2016-01-31T03:53:18.399Z,2.6
2016-01-31T03:54:18.402Z,2.56
2016-01-31T03:55:18.593Z,2.67
2016-01-31T03:56:18.423Z,2.57
2016-01-31T03:57:18.379Z,2.63
2016-01-31T03:58:18.382Z,2.61
2016-01-31T03:59:18.386Z,2.57
2016-01-31T04:00:18.372Z,2.64
2016-01-31T04:01:18.359Z,2.63
2016-01-31T04:02:18.363Z,2.61
2016-01-31T04:03:18.349Z,2.59
2016-01-31T04:04:18.353Z,2.59
2016-01-31T04:05:18.341Z,2.53
2016-01-31T04:06:18.328Z,2.64
2016-01-31T04:07:18.330Z,2.6
2016-01-31T04:08:18.332Z,2.59
2016-01-31T04:09:18.305Z,2.56
2016-01-31T04:10:18.151Z,2.6
2016-01-31T04:11:18.310Z,2.56
2016-01-31T04:12:18.314Z,2.59
2016-01-31T04:13:18.287Z,2.64
2016-01-31T04:14:18.274Z,2.59
2016-01-31T04:15:18.278Z,2.6
2016-01-31T04:16:18.108Z,2.61
2016-01-31T04:17:18.254Z,2.53
2016-01-31T04:18:18.304Z,2.6
2016-01-31T04:19:18.260Z,2.59
2016-01-31T04:20:18.254Z,2.56
2016-01-31T04:21:18.241Z,2.57
2016-01-31T04:22:18.260Z,2.54
2016-01-31T04:23:18.230Z,2.57
2016-01-31T04:24:18.064Z,2.57
2016-01-31T04:25:18.224Z,2.56
2016-01-31T04:26:18.227Z,2.56
2016-01-31T04:27:18.198Z,2.59
2016-01-31T04:28:18.202Z,2.56
2016-01-31T04:29:18.205Z,2.59
2016-01-31T04:30:18.192Z,2.49
2016-01-31T04:31:18.179Z,2.54
2016-01-31T04:32:18.182Z,2.43
2016-01-31T04:33:18.187Z,2.54
2016-01-31T04:34:18.159Z,2.39
2016-01-31T04:35:18.161Z,2.56
2016-01-31T04:36:18.148Z,2.45
2016-01-31T04:37:18.168Z,2.56
2016-01-31T04:38:18.139Z,2.57
2016-01-31T04:39:18.142Z,2.41
2016-01-31T04:40:18.128Z,2.49
2016-01-31T04:41:18.133Z,2.56
2016-01-31T04:42:18.119Z,2.46
2016-01-31T04:43:18.106Z,2.45
2016-01-31T04:44:18.114Z,2.41
2016-01-31T04:45:18.100Z,2.56
2016-01-31T04:46:18.087Z,2.57
2016-01-31T04:47:18.089Z,2.41
2016-01-31T04:48:18.093Z,2.57
2016-01-31T04:49:18.080Z,2.46
2016-01-31T04:50:18.099Z,2.45
2016-01-31T04:51:18.086Z,2.46
2016-01-31T04:52:18.058Z,2.42
2016-01-31T04:53:18.093Z,2.57
2016-01-31T04:54:18.048Z,2.52
2016-01-31T04:55:18.051Z,2.46
2016-01-31T04:56:18.085Z,2.49
2016-01-31T04:57:18.026Z,2.52
2016-01-31T04:58:18.029Z,2.59
2016-01-31T04:59:18.031Z,2.52
2016-01-31T05:00:18.019Z,2.57
2016-01-31T05:01:18.007Z,2.52
2016-01-31T05:02:18.025Z,2.43
2016-01-31T05:03:17.998Z,2.56
2016-01-31T05:04:18.001Z,2.56
2016-01-31T05:05:17.987Z,2.53
2016-01-31T05:06:18.006Z,2.57
2016-01-31T05:07:17.977Z,2.45
2016-01-31T05:08:17.996Z,2.56
2016-01-31T05:09:17.982Z,2.56
2016-01-31T05:10:17.954Z,2.49
2016-01-31T05:11:17.941Z,2.56
2016-01-31T05:12:17.944Z,2.46
2016-01-31T05:13:17.963Z,2.56
2016-01-31T05:14:17.934Z,2.59
2016-01-31T05:15:17.937Z,2.56
2016-01-31T05:16:17.924Z,2.61
2016-01-31T05:17:17.926Z,2.59
2016-01-31T05:18:17.914Z,2.56
2016-01-31T05:19:17.917Z,2.64
2016-01-31T05:20:17.901Z,2.57
2016-01-31T05:21:17.906Z,2.6
2016-01-31T05:22:17.892Z,2.59
2016-01-31T05:23:17.880Z,2.56
2016-01-31T05:24:17.883Z,2.61
2016-01-31T05:25:17.886Z,2.59
2016-01-31T05:26:17.873Z,2.61
2016-01-31T05:27:17.845Z,2.64
2016-01-31T05:28:17.863Z,2.64
2016-01-31T05:29:17.866Z,2.63
2016-01-31T05:30:17.853Z,2.64
2016-01-31T05:31:17.840Z,2.61
2016-01-31T05:32:17.829Z,2.59
2016-01-31T05:33:17.848Z,2.59
2016-01-31T05:34:17.804Z,2.67
2016-01-31T05:35:17.806Z,2.59
2016-01-31T05:36:17.810Z,2.59
2016-01-31T05:37:17.814Z,2.6
2016-01-31T05:38:17.785Z,2.63
2016-01-31T05:39:17.787Z,2.67
2016-01-31T05:40:17.792Z,2.59
2016-01-31T05:41:17.764Z,2.61
2016-01-31T05:42:17.766Z,2.57
2016-01-31T05:43:17.612Z,2.6
2016-01-31T05:44:17.773Z,2.61
2016-01-31T05:45:17.759Z,2.57
2016-01-31T05:46:17.746Z,2.53
2016-01-31T05:47:17.736Z,2.6
2016-01-31T05:48:17.723Z,2.57
2016-01-31T05:49:17.726Z,2.59
2016-01-31T05:50:17.744Z,2.56
2016-01-31T05:51:17.716Z,2.53
2016-01-31T05:52:17.719Z,2.59
2016-01-31T05:53:17.706Z,2.64
2016-01-31T05:54:17.740Z,2.63
2016-01-31T05:55:17.696Z,2.61
2016-01-31T05:56:17.716Z,2.64
2016-01-31T05:57:17.702Z,2.64
2016-01-31T05:58:17.674Z,2.6
2016-01-31T05:59:17.660Z,2.61
2016-01-31T06:00:17.667Z,2.56
2016-01-31T06:01:17.654Z,2.57
2016-01-31T06:02:17.657Z,2.61
2016-01-31T06:03:17.643Z,2.56
2016-01-31T06:04:17.630Z,2.6
2016-01-31T06:05:17.635Z,2.57
2016-01-31T06:06:17.638Z,2.56
2016-01-31T06:07:17.627Z,2.57
2016-01-31T06:08:17.630Z,2.59
2016-01-31T06:09:17.600Z,2.57
2016-01-31T06:10:17.603Z,2.61
2016-01-31T06:11:17.591Z,2.53
2016-01-31T06:12:17.609Z,2.49
2016-01-31T06:13:17.566Z,2.57
2016-01-31T06:14:17.553Z,2.6
2016-01-31T06:15:17.541Z,2.6
2016-01-31T06:16:17.512Z,2.61
2016-01-31T06:17:17.485Z,2.59
2016-01-31T06:18:17.483Z,2.57
2016-01-31T06:19:17.448Z,2.6
2016-01-31T06:20:17.463Z,2.57
2016-01-31T06:21:17.460Z,2.67
2016-01-31T06:22:17.442Z,2.59
2016-01-31T06:23:17.427Z,2.6
2016-01-31T06:24:17.399Z,2.57
2016-01-31T06:25:17.415Z,2.6
2016-01-31T06:26:17.418Z,2.54
2016-01-31T06:27:17.388Z,2.57
2016-01-31T06:28:17.576Z,2.61
2016-01-31T06:29:17.406Z,2.64
2016-01-31T06:30:17.378Z,2.61
2016-01-31T06:31:17.365Z,2.6
2016-01-31T06:32:17.368Z,2.64
2016-01-31T06:33:17.338Z,2.6
2016-01-31T06:34:17.340Z,2.64
2016-01-31T06:35:17.329Z,2.61
2016-01-31T06:36:17.347Z,2.66
2016-01-31T06:37:17.334Z,2.61
2016-01-31T06:38:17.321Z,2.74
2016-01-31T06:39:17.323Z,2.64
2016-01-31T06:40:17.327Z,2.67
2016-01-31T06:41:17.330Z,2.66
2016-01-31T06:42:17.332Z,2.66
2016-01-31T06:43:17.304Z,2.63
2016-01-31T06:44:17.279Z,2.63
2016-01-31T06:45:17.281Z,2.77
2016-01-31T06:46:17.284Z,2.75
2016-01-31T06:47:17.273Z,2.75
2016-01-31T06:48:17.275Z,2.74
2016-01-31T06:49:17.247Z,2.78
2016-01-31T06:50:17.250Z,2.79
2016-01-31T06:51:17.252Z,2.77
2016-01-31T06:52:17.238Z,2.84
2016-01-31T06:53:17.225Z,2.78
2016-01-31T06:54:17.228Z,2.78
2016-01-31T06:55:17.230Z,2.77
2016-01-31T06:56:17.249Z,2.79
2016-01-31T06:57:17.205Z,2.82
2016-01-31T06:58:17.208Z,2.77
2016-01-31T06:59:17.214Z,2.74
2016-01-31T07:00:17.186Z,2.78
2016-01-31T07:01:17.189Z,2.81
2016-01-31T07:02:17.175Z,2.82
2016-01-31T07:03:17.019Z,2.82
2016-01-31T07:04:17.179Z,2.81
2016-01-31T07:05:17.166Z,2.81
2016-01-31T07:06:17.153Z,2.77
2016-01-31T07:07:17.156Z,2.78
2016-01-31T07:08:17.159Z,2.78
2016-01-31T07:09:17.146Z,2.81
2016-01-31T07:10:17.135Z,2.78
2016-01-31T07:11:17.138Z,2.78
2016-01-31T07:12:17.141Z,2.77
2016-01-31T07:13:17.127Z,2.81
2016-01-31T07:14:17.130Z,2.85
2016-01-31T07:15:17.112Z,2.78
2016-01-31T07:16:17.114Z,2.78
2016-01-31T07:17:17.087Z,2.84
2016-01-31T07:18:17.106Z,2.89
2016-01-31T07:19:17.077Z,2.79
2016-01-31T07:20:17.095Z,2.81
2016-01-31T07:21:17.083Z,2.79
2016-01-31T07:22:17.085Z,2.82
2016-01-31T07:23:17.057Z,2.92
2016-01-31T07:24:17.091Z,2.9
2016-01-31T07:25:17.062Z,2.96
2016-01-31T07:26:17.065Z,2.95
2016-01-31T07:27:17.068Z,2.93
2016-01-31T07:28:16.884Z,3
2016-01-31T07:29:17.043Z,2.99
2016-01-31T07:30:17.018Z,2.99
2016-01-31T07:31:17.021Z,2.99
2016-01-31T07:32:17.023Z,3.03
2016-01-31T07:33:17.026Z,3.02
2016-01-31T07:34:17.013Z,3
2016-01-31T07:35:17.001Z,3.05
2016-01-31T07:36:17.004Z,3.05
2016-01-31T07:37:16.992Z,3.15
2016-01-31T07:38:16.994Z,3.14
2016-01-31T07:39:16.983Z,3.14
2016-01-31T07:40:16.985Z,3.11
2016-01-31T07:41:16.971Z,3.13
2016-01-31T07:42:16.960Z,3.21
2016-01-31T07:43:16.951Z,3.21
2016-01-31T07:44:16.969Z,3.2
2016-01-31T07:45:16.941Z,3.28
2016-01-31T07:46:16.943Z,3.24
2016-01-31T07:47:16.946Z,3.24
2016-01-31T07:48:16.950Z,3.29
2016-01-31T07:49:16.922Z,3.31
2016-01-31T07:50:16.925Z,3.26
2016-01-31T07:51:16.928Z,3.28
2016-01-31T07:52:16.931Z,3.35
2016-01-31T07:53:16.902Z,3.31
2016-01-31T07:54:16.921Z,3.33
2016-01-31T07:55:16.892Z,3.47
2016-01-31T07:56:16.926Z,3.48
2016-01-31T07:57:16.882Z,3.43
2016-01-31T07:58:16.870Z,3.54
2016-01-31T07:59:16.873Z,3.57
2016-01-31T08:00:16.875Z,3.58
2016-01-31T08:01:16.862Z,3.6
2016-01-31T08:02:16.865Z,3.57
2016-01-31T08:03:16.868Z,3.58
2016-01-31T08:04:16.840Z,3.69
2016-01-31T08:05:16.843Z,3.68
2016-01-31T08:06:16.845Z,3.73
2016-01-31T08:07:16.849Z,3.72
2016-01-31T08:08:16.821Z,3.7
2016-01-31T08:09:16.824Z,3.66
2016-01-31T08:10:16.826Z,3.75
2016-01-31T08:11:16.829Z,3.72
2016-01-31T08:12:16.816Z,3.79
2016-01-31T08:13:16.803Z,3.76
2016-01-31T08:14:16.821Z,3.78
2016-01-31T08:15:16.809Z,3.68
2016-01-31T08:16:16.793Z,3.79
2016-01-31T08:17:16.814Z,3.69
2016-01-31T08:18:16.780Z,3.7
2016-01-31T08:19:16.800Z,3.69
2016-01-31T08:20:16.771Z,3.7
2016-01-31T08:21:16.789Z,3.83
2016-01-31T08:22:16.776Z,3.76
2016-01-31T08:23:16.780Z,3.87
2016-01-31T08:24:16.766Z,3.84
2016-01-31T08:25:16.769Z,3.9
2016-01-31T08:26:16.757Z,3.87
2016-01-31T08:27:16.760Z,3.88
2016-01-31T08:28:16.731Z,3.87
2016-01-31T08:29:16.750Z,3.88
2016-01-31T08:30:16.753Z,3.84
2016-01-31T08:31:16.740Z,3.86
2016-01-31T08:32:16.743Z,3.98
2016-01-31T08:33:16.731Z,3.94
2016-01-31T08:34:16.718Z,3.93
2016-01-31T08:35:16.705Z,3.97
2016-01-31T08:36:16.740Z,4
2016-01-31T08:37:16.696Z,3.98
2016-01-31T08:38:16.699Z,4.04
2016-01-31T08:39:16.702Z,4
2016-01-31T08:40:16.704Z,3.98
2016-01-31T08:41:16.535Z,4.04
2016-01-31T08:42:16.698Z,4.05
2016-01-31T08:43:16.700Z,4.06
2016-01-31T08:44:16.672Z,4.11
2016-01-31T08:45:16.674Z,4.12
2016-01-31T08:46:16.677Z,4.15
2016-01-31T08:47:16.667Z,4.15
2016-01-31T08:48:16.677Z,4.2
2016-01-31T08:49:16.650Z,4.2
2016-01-31T08:50:16.653Z,4.24
2016-01-31T08:51:16.639Z,4.29
2016-01-31T08:52:16.658Z,4.26
2016-01-31T08:53:16.662Z,4.26
2016-01-31T08:54:16.649Z,4.37
2016-01-31T08:55:16.635Z,4.36
2016-01-31T08:56:16.638Z,4.27
2016-01-31T08:57:16.640Z,4.26
2016-01-31T08:58:16.628Z,4.3
2016-01-31T08:59:16.615Z,4.36
2016-01-31T09:00:16.617Z,4.32
2016-01-31T09:01:16.621Z,4.33
2016-01-31T09:02:16.625Z,4.4
2016-01-31T09:03:16.612Z,4.32
2016-01-31T09:04:16.600Z,4.5
2016-01-31T09:05:16.586Z,4.45
2016-01-31T09:06:16.590Z,4.59
2016-01-31T09:07:16.578Z,4.48
2016-01-31T09:08:16.597Z,4.52
2016-01-31T09:09:16.583Z,4.55
2016-01-31T09:10:16.602Z,4.52
2016-01-31T09:11:16.590Z,4.65
2016-01-31T09:12:16.608Z,4.69
2016-01-31T09:13:16.564Z,4.66
2016-01-31T09:14:16.570Z,4.73
2016-01-31T09:15:16.572Z,4.8
2016-01-31T09:16:17.294Z,4.86
2016-01-31T09:17:16.563Z,4.78
2016-01-31T09:18:16.567Z,4.82
2016-01-31T09:19:16.570Z,4.86
2016-01-31T09:20:16.563Z,4.85
2016-01-31T09:21:16.550Z,4.91
2016-01-31T09:22:16.537Z,4.91
2016-01-31T09:23:16.539Z,5
2016-01-31T09:24:16.542Z,5.03
2016-01-31T09:25:16.527Z,4.99
2016-01-31T09:26:16.561Z,5
2016-01-31T09:27:16.533Z,4.92
2016-01-31T09:28:16.520Z,5.03
2016-01-31T09:29:16.522Z,5.06
2016-01-31T09:30:16.525Z,4.97
2016-01-31T09:31:16.514Z,4.96
2016-01-31T09:32:16.517Z,5.09
2016-01-31T09:33:16.534Z,5.02
2016-01-31T09:34:16.506Z,5.1
2016-01-31T09:35:16.509Z,5.1
2016-01-31T09:36:16.512Z,5.18
2016-01-31T09:37:16.485Z,5.13
2016-01-31T09:38:16.503Z,5.13
2016-01-31T09:39:16.506Z,5.07
2016-01-31T09:40:16.462Z,5.18
2016-01-31T09:41:16.480Z,5.18
2016-01-31T09:42:16.483Z,5.18
2016-01-31T09:43:16.502Z,5.17
2016-01-31T09:44:16.462Z,5.21
2016-01-31T09:45:16.480Z,5.24
2016-01-31T09:46:16.467Z,5.25
2016-01-31T09:47:16.470Z,5.27
2016-01-31T09:48:16.469Z,5.21
2016-01-31T09:49:16.471Z,5.18
2016-01-31T09:50:16.458Z,5.17
2016-01-31T09:51:16.462Z,5.2
2016-01-31T09:52:16.917Z,5.2
2016-01-31T09:53:16.451Z,5.07
2016-01-31T09:54:16.453Z,5.12
2016-01-31T09:55:16.458Z,5.09
2016-01-31T09:56:16.460Z,5.13
2016-01-31T09:57:16.479Z,5.02
2016-01-31T09:58:16.436Z,5.09
2016-01-31T09:59:16.424Z,5.1
2016-01-31T10:00:16.676Z,5.1
2016-01-31T10:01:16.412Z,5.13
2016-01-31T10:02:16.416Z,5.21
2016-01-31T10:03:16.434Z,5.09
2016-01-31T10:04:16.437Z,5.2
2016-01-31T10:05:16.408Z,5.17
2016-01-31T10:06:16.412Z,5.25
2016-01-31T10:07:16.415Z,5.17
2016-01-31T10:08:16.402Z,5.27
2016-01-31T10:09:16.420Z,5.22
2016-01-31T10:10:16.395Z,5.25
2016-01-31T10:11:16.398Z,5.28
2016-01-31T10:12:16.385Z,5.31
2016-01-31T10:13:16.404Z,5.36
2016-01-31T10:14:16.391Z,5.39
2016-01-31T10:15:16.488Z,5.4
2016-01-31T10:16:16.537Z,5.39
2016-01-31T10:17:16.415Z,5.49
2016-01-31T10:18:16.373Z,5.4
2016-01-31T10:19:16.376Z,5.42
2016-01-31T10:20:16.379Z,5.46
2016-01-31T10:21:16.385Z,5.53
2016-01-31T10:22:16.371Z,5.45
2016-01-31T10:23:16.359Z,5.53
2016-01-31T10:24:16.377Z,5.54
2016-01-31T10:25:17.473Z,5.48
2016-01-31T10:26:16.352Z,5.42
2016-01-31T10:27:16.418Z,5.45
2016-01-31T10:28:16.355Z,5.38
2016-01-31T10:29:16.358Z,5.42
2016-01-31T10:30:16.344Z,5.42
2016-01-31T10:31:16.410Z,5.4
2016-01-31T10:32:16.350Z,5.36
2016-01-31T10:33:16.977Z,5.33
2016-01-31T10:34:16.371Z,5.39
2016-01-31T10:35:16.328Z,5.4
2016-01-31T10:36:16.331Z,5.35
2016-01-31T10:37:16.317Z,5.38
2016-01-31T10:38:16.320Z,5.4
2016-01-31T10:39:16.432Z,5.42
2016-01-31T10:40:16.310Z,5.42
2016-01-31T10:41:16.328Z,5.4
2016-01-31T10:42:16.316Z,5.46
2016-01-31T10:43:16.319Z,5.4
2016-01-31T10:44:16.290Z,5.48
2016-01-31T10:45:16.308Z,5.43
2016-01-31T10:46:16.503Z,5.56
2016-01-31T10:47:16.302Z,5.54
2016-01-31T10:48:16.289Z,5.54
2016-01-31T10:49:16.291Z,5.54
2016-01-31T10:50:16.311Z,5.61
2016-01-31T10:51:16.300Z,5.57
2016-01-31T10:52:16.287Z,5.67
2016-01-31T10:53:16.274Z,5.72
2016-01-31T10:54:16.155Z,5.78
2016-01-31T10:55:16.267Z,5.82
2016-01-31T10:56:16.300Z,5.86
2016-01-31T10:57:16.288Z,5.9
2016-01-31T10:58:16.258Z,5.93
2016-01-31T10:59:16.294Z,6.01
2016-01-31T11:00:16.282Z,6.11
2016-01-31T11:01:16.257Z,6.17
2016-01-31T11:02:16.259Z,6.19
2016-01-31T11:03:16.262Z,6.33
2016-01-31T11:04:16.249Z,6.19
2016-01-31T11:05:16.253Z,6.25
2016-01-31T11:06:16.240Z,6.25
2016-01-31T11:07:16.243Z,6.34
2016-01-31T11:08:16.261Z,6.31
2016-01-31T11:09:16.248Z,6.38
2016-01-31T11:10:16.271Z,6.33
2016-01-31T11:11:16.288Z,6.31
2016-01-31T11:12:16.229Z,6.3
2016-01-31T11:13:16.231Z,6.31
2016-01-31T11:14:16.238Z,6.27
2016-01-31T11:15:16.226Z,6.31
2016-01-31T11:16:16.229Z,6.37
2016-01-31T11:17:16.231Z,6.34
2016-01-31T11:18:16.234Z,6.33
2016-01-31T11:19:16.225Z,6.33
2016-01-31T11:20:16.227Z,6.28
2016-01-31T11:21:16.230Z,6.37
2016-01-31T11:22:16.218Z,6.4
2016-01-31T11:23:16.220Z,6.34
2016-01-31T11:24:16.207Z,6.34
2016-01-31T11:25:16.210Z,6.41
2016-01-31T11:26:16.087Z,6.43
2016-01-31T11:27:16.215Z,6.44
2016-01-31T11:28:16.218Z,6.3
2016-01-31T11:29:16.236Z,6.46
2016-01-31T11:30:16.209Z,6.43
2016-01-31T11:31:16.196Z,6.38
2016-01-31T11:32:16.198Z,6.43
2016-01-31T11:33:16.607Z,6.38
2016-01-31T11:34:16.205Z,6.44
2016-01-31T11:35:16.192Z,6.38
2016-01-31T11:36:16.194Z,6.46
2016-01-31T11:37:16.213Z,6.46
2016-01-31T11:38:15.763Z,6.43
2016-01-31T11:39:16.202Z,6.38
2016-01-31T11:40:16.221Z,6.49
2016-01-31T11:41:16.177Z,6.51
2016-01-31T11:42:16.180Z,6.51
2016-01-31T11:43:16.292Z,6.48
2016-01-31T11:44:16.544Z,6.46
2016-01-31T11:45:16.861Z,6.54
2016-01-31T11:46:16.252Z,6.48
2016-01-31T11:47:17.633Z,6.49
2016-01-31T11:48:16.242Z,6.49
2016-01-31T11:49:16.166Z,6.54
2016-01-31T11:50:16.212Z,6.55
2016-01-31T11:51:18.198Z,6.49
2016-01-31T11:52:16.174Z,6.55
2016-01-31T11:53:16.177Z,6.52
2016-01-31T11:54:16.728Z,6.55
2016-01-31T11:55:16.184Z,6.55
2016-01-31T11:56:16.484Z,6.58
2016-01-31T11:57:16.190Z,6.54
2016-01-31T11:58:16.509Z,6.58
2016-01-31T11:59:16.215Z,6.52
2016-01-31T12:00:17.187Z,6.58
2016-01-31T12:01:16.393Z,6.56
2016-01-31T12:02:16.286Z,6.51
2016-01-31T12:03:16.993Z,6.62
2016-01-31T12:04:16.199Z,6.66
2016-01-31T12:05:16.155Z,6.58
2016-01-31T12:06:16.236Z,6.61
2016-01-31T12:07:16.755Z,6.69
2016-01-31T12:08:16.211Z,6.58
2016-01-31T12:09:16.155Z,6.62
2016-01-31T12:10:16.143Z,6.62
2016-01-31T12:11:16.146Z,6.7
2016-01-31T12:12:16.149Z,6.67
2016-01-31T12:13:16.136Z,6.7
2016-01-31T12:14:16.140Z,6.69
2016-01-31T12:15:16.143Z,6.69
2016-01-31T12:16:16.146Z,6.69
2016-01-31T12:17:16.132Z,6.73
2016-01-31T12:18:16.124Z,6.73
2016-01-31T12:19:16.128Z,6.61
2016-01-31T12:20:16.145Z,6.61
2016-01-31T12:21:16.133Z,6.69
2016-01-31T12:22:16.136Z,6.67
2016-01-31T12:23:16.139Z,6.59
2016-01-31T12:24:16.142Z,6.58
2016-01-31T12:25:16.112Z,6.64
2016-01-31T12:26:16.115Z,6.64
2016-01-31T12:27:16.121Z,6.55
2016-01-31T12:28:16.124Z,6.54
2016-01-31T12:29:16.129Z,6.51
2016-01-31T12:30:16.116Z,6.55
2016-01-31T12:31:16.119Z,6.41
2016-01-31T12:32:16.122Z,6.38
2016-01-31T12:33:16.108Z,6.41
2016-01-31T12:34:16.114Z,6.49
2016-01-31T12:35:16.101Z,6.54
2016-01-31T12:36:16.103Z,6.52
2016-01-31T12:37:16.106Z,6.58
2016-01-31T12:38:16.110Z,6.55
2016-01-31T12:39:16.128Z,6.56
2016-01-31T12:40:16.100Z,6.62
2016-01-31T12:41:15.959Z,6.69
2016-01-31T12:42:16.103Z,6.7
2016-01-31T12:43:16.094Z,6.67
2016-01-31T12:44:16.096Z,6.64
2016-01-31T12:45:16.568Z,6.69
2016-01-31T12:46:16.102Z,6.85
2016-01-31T12:47:16.095Z,6.79
2016-01-31T12:48:16.097Z,6.74
2016-01-31T12:49:16.087Z,6.73
2016-01-31T12:50:16.090Z,6.8
2016-01-31T12:51:16.077Z,6.8
2016-01-31T12:52:16.095Z,6.85
2016-01-31T12:53:16.223Z,6.92
2016-01-31T12:54:15.917Z,6.77
2016-01-31T12:55:16.170Z,6.95
2016-01-31T12:56:16.095Z,6.8
2016-01-31T12:57:16.082Z,6.84
2016-01-31T12:58:16.101Z,6.91
2016-01-31T12:59:16.088Z,6.85
2016-01-31T13:00:16.059Z,6.94
2016-01-31T13:01:16.079Z,6.91
2016-01-31T13:02:16.069Z,6.88
2016-01-31T13:03:16.072Z,6.89
2016-01-31T13:04:16.059Z,6.91
2016-01-31T13:05:16.078Z,6.89
2016-01-31T13:06:16.065Z,6.89
2016-01-31T13:07:16.067Z,6.87
2016-01-31T13:08:16.070Z,6.89
2016-01-31T13:09:16.183Z,6.76
2016-01-31T13:10:16.061Z,6.81
2016-01-31T13:11:16.234Z,6.79
2016-01-31T13:12:16.081Z,6.89
2016-01-31T13:13:16.053Z,6.85
2016-01-31T13:14:16.039Z,6.85
2016-01-31T13:15:16.339Z,6.91
2016-01-31T13:16:16.061Z,6.91
2016-01-31T13:17:16.064Z,6.81
2016-01-31T13:18:16.068Z,6.85
2016-01-31T13:19:16.060Z,6.88
2016-01-31T13:20:16.065Z,6.92
2016-01-31T13:21:16.037Z,6.88